createdAt,value
2022-09-06T00:01:24.666Z,92.30
2022-09-06T00:03:52.030Z,92.20
2022-09-06T00:06:20.109Z,91.90
2022-09-06T00:08:48.061Z,92.20
2022-09-06T00:11:15.555Z,92.10
2022-09-06T00:13:43.032Z,92.30
2022-09-06T00:16:21.522Z,92.30
2022-09-06T00:18:48.723Z,92.40
2022-09-06T00:21:26.631Z,93.10
2022-09-06T00:23:53.928Z,93.40
2022-09-06T00:26:21.902Z,93.40
2022-09-06T00:28:49.269Z,93.40
2022-09-06T00:31:21.371Z,93.50
2022-09-06T00:33:48.677Z,93.60
2022-09-06T00:36:16.022Z,93.70
2022-09-06T00:38:43.350Z,93.90
2022-09-06T00:41:12.006Z,93.90
2022-09-06T00:43:39.256Z,94.00
2022-09-06T00:46:07.773Z,94.10
2022-09-06T00:48:35.620Z,94.20
2022-09-06T00:51:07.836Z,94.20
2022-09-06T00:53:35.043Z,94.40
2022-09-06T00:56:02.786Z,94.50
2022-09-06T00:58:31.304Z,94.40
2022-09-06T01:00:58.687Z,94.60
2022-09-06T01:03:25.780Z,94.30
2022-09-06T01:06:15.066Z,95.20
2022-09-06T01:08:58.687Z,94.50
2022-09-06T01:11:47.397Z,94.50
2022-09-06T01:14:52.072Z,94.40
2022-09-06T01:17:45.735Z,94.40
2022-09-06T01:20:31.878Z,94.40
2022-09-06T01:23:10.972Z,94.20
2022-09-06T01:26:03.988Z,94.40
2022-09-06T01:28:44.583Z,94.40
2022-09-06T01:31:21.116Z,94.70
2022-09-06T01:34:07.273Z,94.50
2022-09-06T01:37:10.183Z,94.60
2022-09-06T01:39:38.754Z,94.70
2022-09-06T01:42:33.126Z,94.80
2022-09-06T01:45:25.090Z,94.70
2022-09-06T01:48:17.472Z,94.80
2022-09-06T01:50:52.332Z,94.60
2022-09-06T01:53:34.950Z,94.80
2022-09-06T01:56:21.308Z,94.60
2022-09-06T01:58:48.379Z,94.60
2022-09-06T02:01:25.027Z,94.30
2022-09-06T02:04:09.593Z,95.30
2022-09-06T02:06:46.434Z,94.50
2022-09-06T02:09:16.350Z,94.30
2022-09-06T02:11:48.964Z,94.30
2022-09-06T02:14:20.163Z,94.40
2022-09-06T02:16:47.947Z,94.20
2022-09-06T02:19:26.232Z,94.40
2022-09-06T02:21:53.427Z,94.40
2022-09-06T02:24:23.875Z,94.40
2022-09-06T02:26:51.175Z,94.60
2022-09-06T02:29:18.420Z,95.40
2022-09-06T02:31:53.199Z,94.70
2022-09-06T02:34:20.404Z,94.60
2022-09-06T02:36:47.565Z,94.80
2022-09-06T02:39:14.859Z,94.60
2022-09-06T02:41:42.498Z,94.70
2022-09-06T02:44:09.647Z,94.60
2022-09-06T02:46:36.943Z,94.50
2022-09-06T02:49:04.255Z,94.80
2022-09-06T02:51:36.355Z,94.60
2022-09-06T02:54:04.025Z,94.70
2022-09-06T02:56:34.549Z,94.90
2022-09-06T02:59:05.117Z,94.80
2022-09-06T03:01:35.832Z,95.00
2022-09-06T03:04:06.311Z,95.00
2022-09-06T03:06:48.066Z,95.00
2022-09-06T03:09:15.276Z,94.70
2022-09-06T03:11:42.392Z,94.70
2022-09-06T03:14:09.828Z,94.50
2022-09-06T03:16:39.075Z,94.60
2022-09-06T03:19:11.243Z,94.50
2022-09-06T03:21:41.701Z,94.60
2022-09-06T03:24:12.194Z,94.70
2022-09-06T03:26:45.445Z,94.40
2022-09-06T03:29:12.621Z,94.40
2022-09-06T03:31:39.839Z,94.20
2022-09-06T03:34:10.934Z,94.60
2022-09-06T03:36:40.960Z,94.40
2022-09-06T03:39:09.594Z,94.40
2022-09-06T03:41:40.365Z,94.70
2022-09-06T03:44:08.132Z,94.80
2022-09-06T03:46:35.515Z,95.00
2022-09-06T03:49:02.742Z,94.80
2022-09-06T03:51:29.979Z,94.80
2022-09-06T03:54:02.132Z,94.70
2022-09-06T03:56:29.281Z,94.80
2022-09-06T03:58:56.497Z,95.00
2022-09-06T04:01:23.875Z,94.80
2022-09-06T04:03:51.196Z,94.90
2022-09-06T04:06:18.210Z,94.60
2022-09-06T04:08:45.707Z,94.50
2022-09-06T04:11:12.855Z,94.20
2022-09-06T04:13:39.972Z,94.10
2022-09-06T04:16:07.402Z,93.90
2022-09-06T04:18:34.580Z,93.80
2022-09-06T04:21:02.985Z,93.90
2022-09-06T04:23:36.488Z,93.80
2022-09-06T04:26:06.790Z,93.60
2022-09-06T04:28:34.422Z,93.90
2022-09-06T04:31:04.977Z,94.20
2022-09-06T04:33:33.722Z,94.20
2022-09-06T04:36:02.193Z,94.60
2022-09-06T04:38:31.033Z,94.80
2022-09-06T04:40:58.237Z,94.50
2022-09-06T04:43:25.743Z,94.60
2022-09-06T04:45:52.852Z,94.50
2022-09-06T04:48:20.131Z,94.50
2022-09-06T04:50:47.473Z,94.80
2022-09-06T04:53:14.670Z,94.70
2022-09-06T04:55:41.834Z,94.60
2022-09-06T04:58:09.267Z,94.90
2022-09-06T05:00:38.866Z,94.60
2022-09-06T05:03:06.079Z,94.70
2022-09-06T05:05:33.579Z,94.50
2022-09-06T05:08:01.891Z,94.40
2022-09-06T05:10:29.043Z,94.60
2022-09-06T05:12:56.464Z,94.80
2022-09-06T05:15:23.960Z,94.70
2022-09-06T05:17:51.219Z,94.70
2022-09-06T05:20:18.837Z,94.40
2022-09-06T05:22:53.377Z,94.40
2022-09-06T05:25:20.756Z,94.10
2022-09-06T05:27:48.056Z,94.40
2022-09-06T05:30:15.830Z,94.40
2022-09-06T05:32:43.140Z,94.30
2022-09-06T05:35:10.215Z,94.20
2022-09-06T05:37:37.387Z,94.20
2022-09-06T05:40:05.001Z,93.90
2022-09-06T05:42:32.587Z,94.40
2022-09-06T05:44:59.614Z,94.60
2022-09-06T05:47:27.105Z,95.20
2022-09-06T05:49:54.528Z,95.30
2022-09-06T05:52:21.647Z,95.80
2022-09-06T05:54:49.000Z,95.90
2022-09-06T05:57:16.133Z,96.10
2022-09-06T05:59:43.245Z,96.10
2022-09-06T06:02:10.557Z,96.00
2022-09-06T06:04:37.721Z,96.00
2022-09-06T06:07:04.976Z,95.90
2022-09-06T06:09:35.383Z,96.20
2022-09-06T06:12:02.740Z,95.90
2022-09-06T06:14:29.835Z,96.00
2022-09-06T06:16:57.212Z,96.00
2022-09-06T06:19:24.446Z,96.00
2022-09-06T06:21:52.542Z,96.10
2022-09-06T06:24:20.195Z,96.70
2022-09-06T06:26:47.350Z,96.40
2022-09-06T06:29:14.652Z,95.30
2022-09-06T06:31:42.131Z,95.10
2022-09-06T06:34:10.529Z,94.80
2022-09-06T06:36:38.256Z,94.60
2022-09-06T06:39:07.386Z,94.00
2022-09-06T06:41:34.562Z,93.50
2022-09-06T06:44:02.894Z,93.50
2022-09-06T06:46:31.772Z,93.50
2022-09-06T06:48:59.063Z,93.60
2022-09-06T06:51:30.847Z,93.20
2022-09-06T06:53:58.158Z,93.40
2022-09-06T06:56:35.589Z,93.30
2022-09-06T06:59:04.462Z,92.80
2022-09-06T07:01:33.104Z,92.20
2022-09-06T07:04:00.708Z,91.50
2022-09-06T07:12:43.076Z,92.10
2022-09-06T07:15:14.447Z,91.30
2022-09-06T07:17:41.697Z,90.10
2022-09-06T07:20:12.647Z,90.40
2022-09-06T07:22:40.738Z,89.40
2022-09-06T07:25:08.812Z,89.30
2022-09-06T07:27:51.260Z,88.00
2022-09-06T07:30:20.386Z,87.30
2022-09-06T07:33:22.691Z,88.20
2022-09-06T07:36:10.139Z,87.60
2022-09-06T07:41:37.556Z,89.20
2022-09-06T07:44:34.622Z,88.60
2022-09-06T08:09:26.403Z,84.00
2022-09-06T08:15:49.211Z,84.30
2022-09-06T08:18:19.884Z,85.20
2022-09-06T08:20:54.512Z,84.50
2022-09-06T08:23:36.001Z,83.30
2022-09-06T08:26:09.922Z,82.80
2022-09-06T08:28:39.917Z,83.50
2022-09-06T08:31:11.939Z,81.80
2022-09-06T08:33:39.441Z,81.40
2022-09-06T08:36:07.387Z,83.20
2022-09-06T08:38:35.543Z,82.00
2022-09-06T08:41:08.328Z,82.10
2022-09-06T08:43:36.399Z,80.70
2022-09-06T08:51:54.508Z,80.00
2022-09-06T09:01:04.127Z,76.50
2022-09-06T09:11:33.538Z,75.30
2022-09-06T09:14:29.543Z,76.70
2022-09-06T09:17:05.610Z,77.70
2022-09-06T09:19:36.902Z,79.00
2022-09-06T09:22:04.311Z,78.40
2022-09-06T09:24:34.382Z,80.50
2022-09-06T09:27:05.665Z,75.70
2022-09-06T09:29:36.307Z,74.40
2022-09-06T09:32:04.176Z,75.70
2022-09-06T09:34:35.446Z,74.10
2022-09-06T09:40:18.009Z,72.50
2022-09-06T09:42:45.330Z,68.00
2022-09-06T09:45:28.561Z,70.50
2022-09-06T09:48:03.804Z,72.30
2022-09-06T09:50:33.120Z,70.30
2022-09-06T09:53:53.603Z,69.80
2022-09-06T09:56:36.118Z,70.80
2022-09-06T09:59:06.261Z,68.50
2022-09-06T10:01:33.961Z,69.20
2022-09-06T10:07:16.310Z,67.10
2022-09-06T10:09:52.737Z,68.20
2022-09-06T10:12:46.638Z,68.20
2022-09-06T10:15:33.612Z,65.10
2022-09-06T10:18:03.030Z,63.30
2022-09-06T10:21:02.349Z,64.40
2022-09-06T10:26:56.589Z,65.10
2022-09-06T10:29:44.151Z,64.80
2022-09-06T10:32:30.368Z,65.30
2022-09-06T10:35:21.182Z,67.40
2022-09-06T10:38:14.541Z,64.50
2022-09-06T10:41:22.928Z,64.60
2022-09-06T10:44:04.652Z,65.00
2022-09-06T10:46:34.025Z,64.10
2022-09-06T10:49:04.535Z,63.40
2022-09-06T10:51:46.339Z,62.40
2022-09-06T10:54:17.149Z,60.00
2022-09-06T10:57:05.107Z,60.50
2022-09-06T10:59:39.706Z,58.50
2022-09-06T11:02:36.376Z,57.10
2022-09-06T11:10:49.971Z,57.60
2022-09-06T11:13:18.770Z,58.00
2022-09-06T11:16:01.466Z,59.30
2022-09-06T11:18:46.803Z,61.40
2022-09-06T11:21:35.665Z,58.90
2022-09-06T11:24:11.322Z,56.70
2022-09-06T11:26:46.156Z,57.60
2022-09-06T11:29:24.247Z,56.80
2022-09-06T11:32:18.188Z,59.30
2022-09-06T11:35:01.568Z,59.00
2022-09-06T11:37:52.069Z,56.20
2022-09-06T11:43:17.279Z,56.40
2022-09-06T11:45:48.997Z,56.10
2022-09-06T11:48:34.625Z,55.70
2022-09-06T11:51:06.969Z,56.00
2022-09-06T11:53:49.431Z,55.70
2022-09-06T11:56:25.978Z,54.10
2022-09-06T11:58:56.741Z,54.20
2022-09-06T12:01:23.917Z,55.90
2022-09-06T12:07:11.954Z,55.10
2022-09-06T12:09:43.132Z,52.00
2022-09-06T12:12:13.594Z,52.10
2022-09-06T12:14:46.892Z,51.50
2022-09-06T12:21:46.698Z,49.70
2022-09-06T12:25:02.868Z,49.70
2022-09-06T12:27:40.928Z,49.50
2022-09-06T12:30:14.355Z,52.30
2022-09-06T12:32:48.793Z,52.80
2022-09-06T12:38:08.746Z,50.30
2022-09-06T12:40:38.800Z,49.80
2022-09-06T12:43:06.154Z,47.40
2022-09-06T12:45:33.685Z,47.30
2022-09-06T12:48:08.841Z,47.70
2022-09-06T12:50:36.904Z,48.90
2022-09-06T12:53:04.984Z,49.30
2022-09-06T12:55:38.863Z,51.40
2022-09-06T12:58:10.442Z,48.10
2022-09-06T13:00:40.830Z,48.00
2022-09-06T13:03:28.149Z,47.10
2022-09-06T13:05:58.285Z,45.10
2022-09-06T13:08:39.965Z,44.30
2022-09-06T13:11:12.748Z,44.80
2022-09-06T13:13:49.321Z,46.00
2022-09-06T13:16:50.391Z,45.20
2022-09-06T13:19:39.390Z,46.10
2022-09-06T13:22:12.524Z,47.50
2022-09-06T13:25:25.575Z,44.10
2022-09-06T13:28:05.079Z,42.00
2022-09-06T13:30:49.029Z,43.40
2022-09-06T13:33:24.887Z,40.80
2022-09-06T13:36:04.952Z,42.40
2022-09-06T13:38:38.248Z,42.10
2022-09-06T13:41:13.551Z,43.60
2022-09-06T13:43:46.341Z,44.70
2022-09-06T13:46:13.652Z,45.40
2022-09-06T13:48:41.945Z,46.70
2022-09-06T13:51:09.888Z,44.10
2022-09-06T13:53:37.494Z,44.60
2022-09-06T13:56:12.749Z,46.10
2022-09-06T13:58:40.307Z,46.90
2022-09-06T14:01:10.621Z,48.10
2022-09-06T14:03:40.085Z,48.90
2022-09-06T14:06:09.448Z,49.10
2022-09-06T14:08:56.320Z,48.00
2022-09-06T14:11:25.756Z,47.00
2022-09-06T14:13:53.172Z,48.20
2022-09-06T14:16:20.646Z,48.50
2022-09-06T14:18:52.261Z,46.90
2022-09-06T14:21:22.643Z,46.10
2022-09-06T14:23:58.887Z,47.00
2022-09-06T14:26:30.824Z,47.90
2022-09-06T14:28:58.246Z,48.50
2022-09-06T14:31:26.860Z,48.60
2022-09-06T14:33:59.488Z,48.90
2022-09-06T14:36:29.474Z,47.70
2022-09-06T14:38:57.935Z,48.50
2022-09-06T14:41:25.274Z,48.60
2022-09-06T14:43:54.650Z,47.80
2022-09-06T14:46:22.582Z,47.70
2022-09-06T14:48:51.396Z,48.60
2022-09-06T14:51:25.145Z,49.30
2022-09-06T14:53:54.981Z,50.30
2022-09-06T14:56:23.825Z,49.90
2022-09-06T14:58:57.681Z,49.70
2022-09-06T15:01:38.400Z,49.30
2022-09-06T15:04:09.133Z,49.00
2022-09-06T15:06:39.271Z,49.20
2022-09-06T15:09:07.263Z,49.20
2022-09-06T15:11:35.515Z,49.40
2022-09-06T15:14:10.052Z,49.20
2022-09-06T15:16:37.480Z,46.90
2022-09-06T15:19:06.513Z,47.20
2022-09-06T15:21:40.022Z,47.70
2022-09-06T15:24:11.713Z,48.70
2022-09-06T15:26:42.836Z,48.40
2022-09-06T15:29:12.034Z,49.50
2022-09-06T15:31:39.404Z,49.20
2022-09-06T15:34:08.363Z,49.60
2022-09-06T15:36:36.286Z,49.30
2022-09-06T15:39:06.042Z,49.80
2022-09-06T15:41:35.806Z,50.50
2022-09-06T15:44:08.684Z,50.50
2022-09-06T15:46:36.780Z,51.10
2022-09-06T15:49:08.110Z,50.70
2022-09-06T15:51:37.760Z,50.40
2022-09-06T15:54:05.526Z,51.60
2022-09-06T15:56:32.957Z,51.90
2022-09-06T15:59:02.159Z,52.10
2022-09-06T16:01:32.147Z,53.00
2022-09-06T16:04:11.376Z,52.90
2022-09-06T16:06:57.105Z,54.50
2022-09-06T16:09:24.872Z,54.20
2022-09-06T16:11:51.930Z,54.70
2022-09-06T16:14:19.604Z,55.50
2022-09-06T16:16:48.136Z,56.40
2022-09-06T16:19:15.205Z,56.80
2022-09-06T16:21:42.864Z,57.20
2022-09-06T16:24:14.524Z,59.00
2022-09-06T16:26:51.582Z,60.90
2022-09-06T16:29:19.327Z,65.20
2022-09-06T16:31:46.794Z,66.20
2022-09-06T16:34:14.249Z,69.00
2022-09-06T16:36:41.976Z,73.80
2022-09-06T16:39:09.411Z,77.70
2022-09-06T16:41:40.100Z,75.20
2022-09-06T16:44:17.050Z,77.50
2022-09-06T16:46:45.614Z,79.40
2022-09-06T16:49:15.948Z,79.60
2022-09-06T16:51:43.861Z,79.90
2022-09-06T16:54:11.145Z,83.40
2022-09-06T16:56:39.616Z,81.70
2022-09-06T16:59:15.459Z,82.90
2022-09-06T17:01:56.046Z,82.00
2022-09-06T17:04:55.385Z,80.60
2022-09-06T17:07:22.670Z,81.60
2022-09-06T17:09:55.435Z,80.30
2022-09-06T17:12:22.977Z,79.20
2022-09-06T17:14:50.036Z,78.90
2022-09-06T17:17:18.065Z,77.60
2022-09-06T17:19:51.877Z,76.70
2022-09-06T17:22:19.081Z,79.10
2022-09-06T17:24:46.313Z,78.60
2022-09-06T17:27:14.223Z,78.40
2022-09-06T17:29:41.306Z,77.90
2022-09-06T17:32:10.625Z,77.30
2022-09-06T17:34:41.158Z,76.80
2022-09-06T17:37:08.296Z,78.10
2022-09-06T17:39:35.628Z,78.10
2022-09-06T17:42:03.054Z,78.00
2022-09-06T17:44:30.308Z,78.50
2022-09-06T17:47:14.108Z,79.30
2022-09-06T17:49:42.963Z,79.30
2022-09-06T17:52:10.393Z,79.40
2022-09-06T17:54:37.673Z,78.80
2022-09-06T17:57:05.128Z,80.00
2022-09-06T17:59:35.421Z,79.90
2022-09-06T18:02:03.932Z,79.00
2022-09-06T18:04:34.189Z,80.20
2022-09-06T18:07:07.337Z,81.80
2022-09-06T18:09:35.103Z,78.60
2022-09-06T18:12:03.106Z,78.30
2022-09-06T18:14:30.337Z,80.70
2022-09-06T18:16:57.746Z,79.10
2022-09-06T18:19:25.301Z,80.10
2022-09-06T18:21:52.435Z,79.80
2022-09-06T18:24:22.898Z,79.40
2022-09-06T18:26:49.988Z,79.90
2022-09-06T18:29:18.571Z,80.80
2022-09-06T18:31:46.011Z,81.40
2022-09-06T18:34:13.256Z,83.00
2022-09-06T18:36:40.473Z,81.90
2022-09-06T18:39:07.967Z,83.00
2022-09-06T18:41:53.992Z,81.00
2022-09-06T18:44:21.820Z,82.00
2022-09-06T18:46:50.094Z,82.40
2022-09-06T18:49:17.580Z,83.30
2022-09-06T18:51:45.851Z,82.00
2022-09-06T18:54:13.732Z,83.10
2022-09-06T18:56:41.473Z,82.80
2022-09-06T18:59:11.166Z,82.30
2022-09-06T19:01:38.692Z,81.90
2022-09-06T19:04:06.281Z,79.10
2022-09-06T19:06:34.372Z,78.40
2022-09-06T19:09:05.196Z,81.50
2022-09-06T19:11:32.758Z,81.40
2022-09-06T19:14:00.695Z,81.10
2022-09-06T19:16:28.585Z,80.20
2022-09-06T19:18:59.784Z,81.50
2022-09-06T19:21:27.781Z,79.90
2022-09-06T19:24:01.596Z,80.90
2022-09-06T19:26:31.814Z,81.50
2022-09-06T19:28:59.960Z,81.80
2022-09-06T19:31:30.346Z,83.20
2022-09-06T19:33:57.727Z,82.80
2022-09-06T19:36:26.622Z,80.90
2022-09-06T19:39:06.274Z,79.00
2022-09-06T19:41:37.169Z,80.90
2022-09-06T19:44:06.047Z,79.40
2022-09-06T19:46:33.780Z,81.50
2022-09-06T19:49:01.057Z,82.50
2022-09-06T19:51:28.410Z,81.40
2022-09-06T19:54:00.126Z,82.40
2022-09-06T19:56:34.191Z,83.80
2022-09-06T19:59:03.753Z,82.90
2022-09-06T20:01:32.976Z,82.30
2022-09-06T20:04:02.727Z,82.70
2022-09-06T20:06:30.982Z,82.90
2022-09-06T20:08:58.573Z,84.30
2022-09-06T20:11:27.988Z,82.70
2022-09-06T20:13:55.091Z,84.00
2022-09-06T20:16:26.420Z,83.40
2022-09-06T20:18:57.065Z,83.60
2022-09-06T20:21:24.537Z,83.90
2022-09-06T20:23:52.966Z,84.30
2022-09-06T20:26:21.226Z,85.30
2022-09-06T20:28:48.950Z,85.90
2022-09-06T20:31:20.866Z,84.50
2022-09-06T20:33:51.176Z,85.50
2022-09-06T20:36:18.574Z,85.60
2022-09-06T20:38:46.345Z,85.00
2022-09-06T20:41:21.196Z,86.00
2022-09-06T20:43:58.524Z,85.50
2022-09-06T20:46:28.239Z,87.30
2022-09-06T20:48:56.910Z,86.10
2022-09-06T20:51:24.258Z,86.30
2022-09-06T20:53:56.019Z,86.40
2022-09-06T20:56:30.956Z,86.40
2022-09-06T20:59:01.076Z,86.20
2022-09-06T21:01:35.960Z,86.10
2022-09-06T21:04:05.504Z,86.30
2022-09-06T21:06:35.846Z,86.90
2022-09-06T21:09:08.198Z,86.20
2022-09-06T21:11:35.366Z,86.20
2022-09-06T21:14:03.079Z,86.20
2022-09-06T21:16:31.580Z,86.80
2022-09-06T21:19:03.525Z,86.50
2022-09-06T21:21:37.124Z,86.80
2022-09-06T21:24:05.457Z,87.20
2022-09-06T21:26:32.692Z,87.20
2022-09-06T21:29:00.333Z,87.80
2022-09-06T21:31:36.244Z,87.10
2022-09-06T21:34:05.619Z,87.60
2022-09-06T21:36:47.917Z,87.20
2022-09-06T21:39:15.377Z,87.90
2022-09-06T21:41:43.606Z,88.20
2022-09-06T21:48:49.659Z,88.00
2022-09-06T21:48:49.835Z,88.40
2022-09-06T21:51:19.296Z,89.10
2022-09-06T21:54:19.102Z,88.60
2022-09-06T21:56:46.810Z,88.70
2022-09-06T21:59:14.235Z,88.70
2022-09-06T22:01:44.035Z,89.20
2022-09-06T22:04:12.332Z,89.10
2022-09-06T22:06:39.669Z,88.70
2022-09-06T22:09:10.944Z,89.00
2022-09-06T22:11:41.739Z,88.20
2022-09-06T22:14:11.261Z,88.20
2022-09-06T22:16:39.233Z,88.90
2022-09-06T22:19:07.054Z,89.10
2022-09-06T22:21:34.316Z,88.70
2022-09-06T22:24:06.859Z,88.80
2022-09-06T22:26:35.218Z,88.70
2022-09-06T22:29:03.825Z,88.50
2022-09-06T22:31:31.975Z,89.20
2022-09-06T22:33:59.309Z,89.30
2022-09-06T22:36:26.555Z,88.90
2022-09-06T22:38:57.608Z,88.90
2022-09-06T22:41:29.208Z,88.80
2022-09-06T22:43:56.571Z,88.50
2022-09-06T22:46:24.062Z,88.60
2022-09-06T22:48:52.267Z,88.90
2022-09-06T22:51:19.397Z,88.60
2022-09-06T22:53:46.579Z,88.70
2022-09-06T22:56:14.094Z,89.30
2022-09-06T22:58:41.244Z,89.60
2022-09-06T23:01:10.595Z,89.60
2022-09-06T23:03:38.267Z,89.00
2022-09-06T23:06:05.526Z,88.80
2022-09-06T23:08:33.638Z,89.10
2022-09-06T23:11:05.394Z,89.70
2022-09-06T23:13:32.482Z,89.90
2022-09-06T23:16:07.213Z,89.60
2022-09-06T23:18:34.612Z,89.50
2022-09-06T23:24:23.402Z,89.20
2022-09-06T23:30:47.910Z,89.80
2022-09-06T23:33:15.165Z,89.80
2022-09-06T23:35:42.431Z,89.60
2022-09-06T23:38:09.870Z,89.80
2022-09-06T23:40:37.524Z,90.00
2022-09-06T23:43:04.726Z,90.20
2022-09-06T23:45:32.084Z,90.70
2022-09-06T23:48:07.293Z,91.00
2022-09-06T23:50:35.549Z,90.80
2022-09-06T23:53:02.904Z,90.50
2022-09-06T23:55:32.557Z,89.70
2022-09-06T23:57:59.562Z,90.00
